createdAt,value
2018-05-14T00:01:23.729Z,14.60
2018-05-14T00:03:51.707Z,14.60
2018-05-14T00:06:19.745Z,14.60
2018-05-14T00:08:48.499Z,14.60
2018-05-14T00:11:16.276Z,14.50
2018-05-14T00:13:43.993Z,14.50
2018-05-14T00:16:11.679Z,14.60
2018-05-14T00:18:39.250Z,14.60
2018-05-14T00:21:06.826Z,14.60
2018-05-14T00:23:34.390Z,14.60
2018-05-14T00:26:01.982Z,14.60
2018-05-14T00:28:29.546Z,14.50
2018-05-14T00:30:57.218Z,14.50
2018-05-14T00:33:24.811Z,14.50
2018-05-14T00:35:52.606Z,14.50
2018-05-14T00:38:20.369Z,14.40
2018-05-14T00:40:48.221Z,14.40
2018-05-14T00:43:16.929Z,14.40
2018-05-14T00:45:44.883Z,14.30
2018-05-14T00:48:12.462Z,14.40
2018-05-14T00:50:40.141Z,14.40
2018-05-14T00:53:07.800Z,14.40
2018-05-14T00:55:35.427Z,14.30
2018-05-14T00:58:04.070Z,14.00
2018-05-14T01:00:31.738Z,14.00
2018-05-14T01:03:00.763Z,13.80
2018-05-14T01:05:28.534Z,13.60
2018-05-14T01:07:57.276Z,13.80
2018-05-14T01:10:25.299Z,13.90
2018-05-14T01:12:53.790Z,14.10
2018-05-14T01:15:21.394Z,14.00
2018-05-14T01:17:48.958Z,14.10
2018-05-14T01:20:16.651Z,14.20
2018-05-14T01:22:45.007Z,14.10
2018-05-14T01:25:12.589Z,14.10
2018-05-14T01:27:40.146Z,14.00
2018-05-14T01:30:07.761Z,14.00
2018-05-14T01:32:36.143Z,14.00
2018-05-14T01:35:04.540Z,14.10
2018-05-14T01:37:32.197Z,14.00
2018-05-14T01:40:00.174Z,14.00
2018-05-14T01:42:28.226Z,14.00
2018-05-14T01:44:56.012Z,14.00
2018-05-14T01:47:23.693Z,13.90
2018-05-14T01:49:51.253Z,13.70
2018-05-14T01:52:18.839Z,13.50
2018-05-14T01:54:46.394Z,13.50
2018-05-14T01:57:13.982Z,13.60
2018-05-14T01:59:41.539Z,13.70
2018-05-14T02:02:09.138Z,13.80
2018-05-14T02:04:36.768Z,13.80
2018-05-14T02:07:05.175Z,14.00
2018-05-14T02:09:32.806Z,14.00
2018-05-14T02:12:00.753Z,14.00
2018-05-14T02:14:28.573Z,14.00
2018-05-14T02:16:56.518Z,14.00
2018-05-14T02:19:24.951Z,14.10
2018-05-14T02:21:52.575Z,14.00
2018-05-14T02:24:20.143Z,14.00
2018-05-14T02:26:47.722Z,14.00
2018-05-14T02:29:15.324Z,14.00
2018-05-14T02:31:42.898Z,14.10
2018-05-14T02:34:10.454Z,14.00
2018-05-14T02:36:38.833Z,14.00
2018-05-14T02:39:06.444Z,14.10
2018-05-14T02:41:34.113Z,14.00
2018-05-14T02:44:02.565Z,14.10
2018-05-14T02:46:30.514Z,14.10
2018-05-14T02:48:58.456Z,14.10
2018-05-14T02:51:27.274Z,14.00
2018-05-14T02:53:55.853Z,14.10
2018-05-14T02:56:23.757Z,14.10
2018-05-14T02:58:52.177Z,14.10
2018-05-14T03:01:19.758Z,14.10
2018-05-14T03:03:47.338Z,14.10
2018-05-14T03:06:14.954Z,14.10
2018-05-14T03:08:42.533Z,14.00
2018-05-14T03:11:11.013Z,14.00
2018-05-14T03:13:38.634Z,14.00
2018-05-14T03:16:06.999Z,14.00
2018-05-14T03:18:35.386Z,13.90
2018-05-14T03:21:02.997Z,13.90
2018-05-14T03:23:30.698Z,13.90
2018-05-14T03:25:59.120Z,13.90
2018-05-14T03:28:27.129Z,13.90
2018-05-14T03:30:54.805Z,13.80
2018-05-14T03:33:22.451Z,13.80
2018-05-14T03:35:50.018Z,13.90
2018-05-14T03:38:17.669Z,13.90
2018-05-14T03:40:45.249Z,13.90
2018-05-14T03:43:13.603Z,13.90
2018-05-14T03:45:41.191Z,13.90
2018-05-14T03:48:10.026Z,13.90
2018-05-14T03:50:38.425Z,14.00
2018-05-14T03:53:06.042Z,13.90
2018-05-14T03:55:33.657Z,14.00
2018-05-14T03:58:01.819Z,14.00
2018-05-14T04:00:42.142Z,14.00
2018-05-14T04:06:25.761Z,14.00
2018-05-14T04:08:53.383Z,13.90
2018-05-14T04:11:20.953Z,14.00
2018-05-14T04:13:48.538Z,14.00
2018-05-14T04:16:16.092Z,14.10
2018-05-14T04:18:43.674Z,14.10
2018-05-14T04:21:11.308Z,14.10
2018-05-14T04:23:38.920Z,14.10
2018-05-14T04:26:06.481Z,14.00
2018-05-14T04:28:34.140Z,14.00
2018-05-14T04:31:02.371Z,14.00
2018-05-14T04:33:30.974Z,14.10
2018-05-14T04:35:59.421Z,14.10
2018-05-14T04:38:27.077Z,14.10
2018-05-14T04:40:54.754Z,14.10
2018-05-14T04:43:22.321Z,14.10
2018-05-14T04:45:49.906Z,14.20
2018-05-14T04:48:17.471Z,14.20
2018-05-14T04:50:45.047Z,14.20
2018-05-14T04:53:12.662Z,14.30
2018-05-14T04:55:40.938Z,14.20
2018-05-14T04:58:08.506Z,14.30
2018-05-14T05:00:36.169Z,14.40
2018-05-14T05:03:04.056Z,14.40
2018-05-14T05:05:31.936Z,14.40
2018-05-14T05:08:00.132Z,14.40
2018-05-14T05:10:28.054Z,14.50
2018-05-14T05:12:55.933Z,14.60
2018-05-14T05:15:23.521Z,14.70
2018-05-14T05:17:51.145Z,14.60
2018-05-14T05:20:18.717Z,14.60
2018-05-14T05:22:46.300Z,14.70
2018-05-14T05:25:13.909Z,14.80
2018-05-14T05:27:41.473Z,14.80
2018-05-14T05:30:09.898Z,15.00
2018-05-14T05:32:37.509Z,15.00
2018-05-14T05:35:05.952Z,15.10
2018-05-14T05:37:33.801Z,15.10
2018-05-14T05:40:01.780Z,15.20
2018-05-14T05:42:29.616Z,15.30
2018-05-14T05:44:57.376Z,15.30
2018-05-14T05:47:25.023Z,15.40
2018-05-14T05:49:52.598Z,15.50
2018-05-14T05:52:20.955Z,15.60
2018-05-14T05:54:48.538Z,15.60
2018-05-14T05:57:16.533Z,15.60
2018-05-14T05:59:44.162Z,15.70
2018-05-14T06:02:11.768Z,15.60
2018-05-14T06:04:40.157Z,15.60
2018-05-14T06:07:08.565Z,15.50
2018-05-14T06:09:36.186Z,15.50
2018-05-14T06:12:05.804Z,15.80
2018-05-14T06:14:33.734Z,16.10
2018-05-14T06:17:05.393Z,16.30
2018-05-14T06:19:36.886Z,16.30
2018-05-14T06:22:05.033Z,16.50
2018-05-14T06:24:32.970Z,16.70
2018-05-14T06:27:01.278Z,17.00
2018-05-14T06:29:29.466Z,17.10
2018-05-14T06:31:57.431Z,16.90
2018-05-14T06:34:26.082Z,16.80
2018-05-14T06:36:53.661Z,16.80
2018-05-14T06:39:21.770Z,16.90
2018-05-14T06:41:49.349Z,17.10
2018-05-14T06:44:16.907Z,17.10
2018-05-14T06:46:45.249Z,17.50
2018-05-14T06:49:12.811Z,17.40
2018-05-14T06:51:40.439Z,17.30
2018-05-14T06:54:08.064Z,17.60
2018-05-14T06:56:36.414Z,17.90
2018-05-14T06:59:04.261Z,17.90
2018-05-14T07:01:32.408Z,17.70
2018-05-14T07:04:00.950Z,17.30
2018-05-14T07:06:29.436Z,17.30
2018-05-14T07:08:58.101Z,17.60
2018-05-14T07:11:25.882Z,17.60
2018-05-14T07:13:53.368Z,17.60
2018-05-14T07:16:20.936Z,17.40
2018-05-14T07:18:48.564Z,17.40
2018-05-14T07:21:16.125Z,17.70
2018-05-14T07:23:43.709Z,17.50
2018-05-14T07:26:11.322Z,18.10
2018-05-14T07:28:38.966Z,18.30
2018-05-14T07:31:06.586Z,18.60
2018-05-14T07:33:34.994Z,18.80
2018-05-14T07:36:03.572Z,19.00
2018-05-14T07:38:31.739Z,19.00
2018-05-14T07:40:59.752Z,18.80
2018-05-14T07:43:27.872Z,18.60
2018-05-14T07:45:56.117Z,18.40
2018-05-14T07:48:23.710Z,18.40
2018-05-14T07:50:52.031Z,18.50
2018-05-14T07:53:19.619Z,18.50
2018-05-14T07:55:47.214Z,18.30
2018-05-14T07:58:14.882Z,18.60
2018-05-14T08:00:42.467Z,18.80
2018-05-14T08:03:10.923Z,19.10
2018-05-14T08:05:38.512Z,19.10
2018-05-14T08:08:06.186Z,19.60
2018-05-14T08:10:34.073Z,19.70
2018-05-14T08:13:02.188Z,20.10
2018-05-14T08:15:30.902Z,20.30
2018-05-14T08:17:59.272Z,20.30
2018-05-14T08:20:26.994Z,20.30
2018-05-14T08:22:54.681Z,20.30
2018-05-14T08:25:22.262Z,20.30
2018-05-14T08:27:49.818Z,20.60
2018-05-14T08:30:17.399Z,20.70
2018-05-14T08:32:44.950Z,20.90
2018-05-14T08:35:12.831Z,20.70
2018-05-14T08:37:40.517Z,19.90
2018-05-14T08:40:08.149Z,19.10
2018-05-14T08:42:36.507Z,19.10
2018-05-14T08:45:04.179Z,19.10
2018-05-14T08:47:31.811Z,19.20
2018-05-14T08:49:59.448Z,18.70
2018-05-14T08:52:27.256Z,18.90
2018-05-14T08:54:55.211Z,19.70
2018-05-14T08:57:23.215Z,19.60
2018-05-14T08:59:50.962Z,19.10
2018-05-14T09:02:19.309Z,18.40
2018-05-14T09:04:46.886Z,18.40
2018-05-14T09:07:14.445Z,18.50
2018-05-14T09:09:42.022Z,17.90
2018-05-14T09:12:09.589Z,17.30
2018-05-14T09:14:37.170Z,17.10
2018-05-14T09:17:04.756Z,16.90
2018-05-14T09:19:32.527Z,17.60
2018-05-14T09:22:00.374Z,18.70
2018-05-14T09:24:28.206Z,19.00
2018-05-14T09:26:56.044Z,18.40
2018-05-14T09:29:23.727Z,17.60
2018-05-14T09:31:51.302Z,17.20
2018-05-14T09:34:18.905Z,17.00
2018-05-14T09:36:46.466Z,17.00
2018-05-14T09:39:14.079Z,17.20
2018-05-14T09:41:41.634Z,17.40
2018-05-14T09:44:09.225Z,17.30
2018-05-14T09:46:36.821Z,17.40
2018-05-14T09:49:04.459Z,17.50
2018-05-14T09:51:32.073Z,18.20
2018-05-14T09:53:59.642Z,18.50
2018-05-14T09:56:27.222Z,18.70
2018-05-14T09:58:54.833Z,18.10
2018-05-14T10:01:22.443Z,18.00
2018-05-14T10:03:50.077Z,17.80
2018-05-14T10:06:17.750Z,17.60
2018-05-14T10:08:45.533Z,17.60
2018-05-14T10:11:13.314Z,18.20
2018-05-14T10:13:41.704Z,20.10
2018-05-14T10:16:09.309Z,20.00
2018-05-14T10:18:37.646Z,21.20
2018-05-14T10:21:05.212Z,21.10
2018-05-14T10:23:32.765Z,21.40
2018-05-14T10:26:00.341Z,21.40
2018-05-14T10:28:27.901Z,21.80
2018-05-14T10:30:56.277Z,21.30
2018-05-14T10:33:23.991Z,21.30
2018-05-14T10:35:51.690Z,20.80
2018-05-14T10:38:19.393Z,19.50
2018-05-14T10:40:48.030Z,20.60
2018-05-14T10:43:16.755Z,20.50
2018-05-14T10:45:44.641Z,20.50
2018-05-14T10:48:13.799Z,19.90
2018-05-14T10:50:41.439Z,20.20
2018-05-14T10:53:08.996Z,20.60
2018-05-14T10:55:36.574Z,21.00
2018-05-14T10:58:04.170Z,20.90
2018-05-14T11:00:32.555Z,20.10
2018-05-14T11:03:00.206Z,20.10
2018-05-14T11:05:28.126Z,20.40
2018-05-14T11:07:55.727Z,21.00
2018-05-14T11:10:23.316Z,20.90
2018-05-14T11:12:50.971Z,21.20
2018-05-14T11:15:18.651Z,20.10
2018-05-14T11:17:46.358Z,20.30
2018-05-14T11:20:14.588Z,20.10
2018-05-14T11:22:43.497Z,20.90
2018-05-14T11:25:12.066Z,21.60
2018-05-14T11:27:39.820Z,21.60
2018-05-14T11:30:08.086Z,21.00
2018-05-14T11:32:35.661Z,21.00
2018-05-14T11:35:03.229Z,20.80
2018-05-14T11:37:30.814Z,20.40
2018-05-14T11:39:58.367Z,20.00
2018-05-14T11:42:25.946Z,19.10
2018-05-14T11:44:53.602Z,18.80
2018-05-14T11:47:21.284Z,18.50
2018-05-14T11:49:48.955Z,19.50
2018-05-14T11:52:16.728Z,20.20
2018-05-14T11:54:45.052Z,20.40
2018-05-14T11:57:13.205Z,21.20
2018-05-14T11:59:40.896Z,21.10
2018-05-14T12:02:08.764Z,21.50
2018-05-14T12:04:36.361Z,21.20
2018-05-14T12:07:03.974Z,20.40
2018-05-14T12:09:31.539Z,20.30
2018-05-14T12:11:59.147Z,20.40
2018-05-14T12:14:26.705Z,20.20
2018-05-14T12:16:55.030Z,19.60
2018-05-14T12:19:22.672Z,19.60
2018-05-14T12:21:50.368Z,20.70
2018-05-14T12:24:18.936Z,19.90
2018-05-14T12:26:47.316Z,19.30
2018-05-14T12:29:16.185Z,19.00
2018-05-14T12:31:44.531Z,19.00
2018-05-14T12:34:13.561Z,19.80
2018-05-14T12:36:42.717Z,19.90
2018-05-14T12:39:10.662Z,19.30
2018-05-14T12:41:39.054Z,20.40
2018-05-14T12:44:06.642Z,20.40
2018-05-14T12:46:34.264Z,21.10
2018-05-14T12:49:01.802Z,21.10
2018-05-14T12:51:29.362Z,20.80
2018-05-14T12:53:57.009Z,20.90
2018-05-14T12:56:24.595Z,20.70
2018-05-14T12:58:52.241Z,20.60
2018-05-14T13:01:19.880Z,20.80
2018-05-14T13:03:47.685Z,20.70
2018-05-14T13:06:15.662Z,20.30
2018-05-14T13:08:43.594Z,20.40
2018-05-14T13:11:11.247Z,20.40
2018-05-14T13:13:38.850Z,20.30
2018-05-14T13:16:06.473Z,20.00
2018-05-14T13:18:34.010Z,20.30
2018-05-14T13:21:01.658Z,20.50
2018-05-14T13:23:29.281Z,20.40
2018-05-14T13:25:57.601Z,21.20
2018-05-14T13:28:25.202Z,21.20
2018-05-14T13:30:52.801Z,20.90
2018-05-14T13:33:20.441Z,20.00
2018-05-14T13:35:48.050Z,19.20
2018-05-14T13:38:15.814Z,18.50
2018-05-14T13:40:44.432Z,20.10
2018-05-14T13:43:12.234Z,20.00
2018-05-14T13:45:39.866Z,20.10
2018-05-14T13:48:07.426Z,20.70
2018-05-14T13:50:35.008Z,20.70
2018-05-14T13:53:02.582Z,21.00
2018-05-14T13:55:30.158Z,21.00
2018-05-14T13:57:57.718Z,20.70
2018-05-14T14:00:25.293Z,21.10
2018-05-14T14:02:52.905Z,20.90
2018-05-14T14:05:20.511Z,20.20
2018-05-14T14:07:48.153Z,20.30
2018-05-14T14:10:16.426Z,20.80
2018-05-14T14:12:44.395Z,20.70
2018-05-14T14:15:13.936Z,20.40
2018-05-14T14:17:42.161Z,20.40
2018-05-14T14:20:09.778Z,20.10
2018-05-14T14:22:37.345Z,20.30
2018-05-14T14:25:04.922Z,20.20
2018-05-14T14:27:32.482Z,20.40
2018-05-14T14:30:00.062Z,20.30
2018-05-14T14:32:27.620Z,20.50
2018-05-14T14:34:55.225Z,20.20
2018-05-14T14:37:23.633Z,19.50
2018-05-14T14:39:51.289Z,19.50
2018-05-14T14:42:19.788Z,20.30
2018-05-14T14:44:48.158Z,20.30
2018-05-14T14:47:16.623Z,20.60
2018-05-14T14:49:44.607Z,20.60
2018-05-14T14:52:12.617Z,20.70
2018-05-14T14:54:41.429Z,21.30
2018-05-14T14:57:09.139Z,21.30
2018-05-14T14:59:36.701Z,20.90
2018-05-14T15:02:04.286Z,21.10
2018-05-14T15:04:31.841Z,21.60
2018-05-14T15:06:59.428Z,21.90
2018-05-14T15:09:27.022Z,22.10
2018-05-14T15:11:54.622Z,22.20
2018-05-14T15:14:22.239Z,22.20
2018-05-14T15:16:50.011Z,22.10
2018-05-14T15:19:18.038Z,22.00
2018-05-14T15:21:46.949Z,22.00
2018-05-14T15:24:14.729Z,21.80
2018-05-14T15:26:42.784Z,21.50
2018-05-14T15:29:10.359Z,21.30
2018-05-14T15:31:37.937Z,21.30
2018-05-14T15:34:05.497Z,21.90
2018-05-14T15:36:33.070Z,22.50
2018-05-14T15:39:00.703Z,22.10
2018-05-14T15:41:28.221Z,22.30
2018-05-14T15:43:55.786Z,22.20
2018-05-14T15:46:23.520Z,22.30
2018-05-14T15:48:51.911Z,23.00
2018-05-14T15:51:20.295Z,22.80
2018-05-14T15:53:48.726Z,23.10
2018-05-14T15:56:16.607Z,23.00
2018-05-14T15:58:44.742Z,22.90
2018-05-14T16:01:12.665Z,22.50
2018-05-14T16:03:40.337Z,22.30
2018-05-14T16:06:08.398Z,22.60
2018-05-14T16:08:36.058Z,22.90
2018-05-14T16:11:03.648Z,22.80
2018-05-14T16:13:32.009Z,21.90
2018-05-14T16:15:59.579Z,21.90
2018-05-14T16:18:27.174Z,22.30
2018-05-14T16:20:54.729Z,22.30
2018-05-14T16:23:22.441Z,22.00
2018-05-14T16:25:50.070Z,21.70
2018-05-14T16:28:19.629Z,21.80
2018-05-14T16:30:47.362Z,21.90
2018-05-14T16:33:15.397Z,21.70
2018-05-14T16:35:43.090Z,21.90
2018-05-14T16:38:10.743Z,22.10
2018-05-14T16:40:38.997Z,22.10
2018-05-14T16:43:06.569Z,22.10
2018-05-14T16:45:34.133Z,21.80
2018-05-14T16:48:01.710Z,21.10
2018-05-14T16:50:29.275Z,20.70
2018-05-14T16:52:56.854Z,20.20
2018-05-14T16:55:24.441Z,19.60
2018-05-14T16:57:52.158Z,19.20
2018-05-14T17:00:19.795Z,19.30
2018-05-14T17:02:48.388Z,19.90
2018-05-14T17:05:16.269Z,19.90
2018-05-14T17:07:44.955Z,19.40
2018-05-14T17:10:12.645Z,19.40
2018-05-14T17:12:40.282Z,19.20
2018-05-14T17:15:07.847Z,19.10
2018-05-14T17:17:35.458Z,19.20
2018-05-14T17:20:03.062Z,19.60
2018-05-14T17:22:32.907Z,19.20
2018-05-14T17:25:00.477Z,19.20
2018-05-14T17:27:28.043Z,19.50
2018-05-14T17:29:55.623Z,19.80
2018-05-14T17:32:23.199Z,19.30
2018-05-14T17:34:51.229Z,19.30
2018-05-14T17:37:18.891Z,19.20
2018-05-14T17:39:46.723Z,18.70
2018-05-14T17:42:14.538Z,18.90
2018-05-14T17:44:42.432Z,18.90
2018-05-14T17:47:10.108Z,18.60
2018-05-14T17:49:37.695Z,18.70
2018-05-14T17:52:05.259Z,18.70
2018-05-14T17:54:32.841Z,18.60
2018-05-14T17:57:01.170Z,18.30
2018-05-14T17:59:28.761Z,18.30
2018-05-14T18:01:56.349Z,18.30
2018-05-14T18:04:23.986Z,18.00
2018-05-14T18:06:51.606Z,17.70
2018-05-14T18:09:20.242Z,17.40
2018-05-14T18:11:47.933Z,17.40
2018-05-14T18:14:16.210Z,17.50
2018-05-14T18:16:44.415Z,17.60
2018-05-14T18:19:12.273Z,17.70
2018-05-14T18:21:45.020Z,17.50
2018-05-14T18:24:13.161Z,17.50
2018-05-14T18:26:46.726Z,17.40
2018-05-14T18:29:21.511Z,17.10
2018-05-14T18:31:54.746Z,17.10
2018-05-14T18:34:28.044Z,17.10
2018-05-14T18:36:55.620Z,17.10
2018-05-14T18:39:23.263Z,16.80
2018-05-14T18:41:50.837Z,16.70
2018-05-14T18:44:18.506Z,16.80
2018-05-14T18:46:46.177Z,16.70
2018-05-14T18:49:14.890Z,16.70
2018-05-14T18:51:43.602Z,16.70
2018-05-14T18:54:12.035Z,16.60
2018-05-14T18:56:39.773Z,16.50
2018-05-14T18:59:07.338Z,16.50
2018-05-14T19:01:34.917Z,16.40
2018-05-14T19:04:02.479Z,16.50
2018-05-14T19:06:30.062Z,16.60
2018-05-14T19:08:57.631Z,16.60
2018-05-14T19:11:30.978Z,16.50
2018-05-14T19:13:58.544Z,16.40
2018-05-14T19:16:31.931Z,16.40
2018-05-14T19:18:59.521Z,16.30
2018-05-14T19:21:27.148Z,16.30
2018-05-14T19:23:54.876Z,16.30
2018-05-14T19:26:22.448Z,16.30
2018-05-14T19:28:55.821Z,16.30
2018-05-14T19:31:23.412Z,16.40
2018-05-14T19:33:56.798Z,16.30
2018-05-14T19:36:25.138Z,16.10
2018-05-14T19:38:52.769Z,16.10
2018-05-14T19:41:20.440Z,16.30
2018-05-14T19:43:48.107Z,16.20
2018-05-14T19:46:16.677Z,16.00
2018-05-14T19:48:44.716Z,16.00
2018-05-14T19:51:13.208Z,16.00
2018-05-14T19:53:40.910Z,16.00
2018-05-14T19:56:09.294Z,16.00
2018-05-14T19:58:36.853Z,16.00
2018-05-14T20:01:04.484Z,15.90
2018-05-14T20:03:32.059Z,15.90
2018-05-14T20:05:59.634Z,15.90
2018-05-14T20:08:28.066Z,15.90
2018-05-14T20:10:55.626Z,15.90
2018-05-14T20:13:23.242Z,15.80
2018-05-14T20:15:51.627Z,15.60
2018-05-14T20:18:20.071Z,15.50
2018-05-14T20:20:47.798Z,15.50
2018-05-14T20:23:15.739Z,15.50
2018-05-14T20:25:43.502Z,15.50
2018-05-14T20:28:11.253Z,15.50
2018-05-14T20:30:39.586Z,15.40
2018-05-14T20:33:07.175Z,15.40
2018-05-14T20:35:34.742Z,15.50
2018-05-14T20:38:02.336Z,15.50
2018-05-14T20:40:29.895Z,15.50
2018-05-14T20:42:57.529Z,15.50
2018-05-14T20:45:25.054Z,15.50
2018-05-14T20:47:52.672Z,15.40
2018-05-14T20:50:20.298Z,15.40
2018-05-14T20:52:47.936Z,15.40
2018-05-14T20:55:15.725Z,15.30
2018-05-14T20:57:44.205Z,15.30
2018-05-14T21:00:12.105Z,15.30
2018-05-14T21:02:39.722Z,15.30
2018-05-14T21:05:08.050Z,15.20
2018-05-14T21:07:35.641Z,15.20
2018-05-14T21:10:03.205Z,15.20
2018-05-14T21:12:30.782Z,15.20
2018-05-14T21:14:58.354Z,15.20
2018-05-14T21:17:25.930Z,15.20
2018-05-14T21:19:53.497Z,15.20
2018-05-14T21:22:21.383Z,15.20
2018-05-14T21:24:49.077Z,15.20
2018-05-14T21:27:16.747Z,15.10
2018-05-14T21:29:44.635Z,15.10
2018-05-14T21:32:12.254Z,15.10
2018-05-14T21:34:39.951Z,15.10
2018-05-14T21:37:07.562Z,15.10
2018-05-14T21:39:35.598Z,15.10
2018-05-14T21:42:04.272Z,15.10
2018-05-14T21:44:31.942Z,15.00
2018-05-14T21:46:59.605Z,15.10
2018-05-14T21:49:27.954Z,15.00
2018-05-14T21:51:55.513Z,15.00
2018-05-14T21:54:23.086Z,14.90
2018-05-14T21:56:50.649Z,14.90
2018-05-14T21:59:18.231Z,14.90
2018-05-14T22:01:45.815Z,14.90
2018-05-14T22:04:13.471Z,14.90
2018-05-14T22:06:41.145Z,14.90
2018-05-14T22:09:08.797Z,14.80
2018-05-14T22:11:36.541Z,14.90
2018-05-14T22:14:04.323Z,14.80
2018-05-14T22:16:32.589Z,14.80
2018-05-14T22:19:00.242Z,14.80
2018-05-14T22:21:27.810Z,14.80
2018-05-14T22:23:55.394Z,14.70
2018-05-14T22:26:22.950Z,14.70
2018-05-14T22:28:50.532Z,14.70
2018-05-14T22:31:18.086Z,14.70
2018-05-14T22:33:45.688Z,14.70
2018-05-14T22:36:13.321Z,14.70
2018-05-14T22:38:40.968Z,14.70
2018-05-14T22:41:10.182Z,14.70
2018-05-14T22:43:37.809Z,14.60
2018-05-14T22:46:05.498Z,14.60
2018-05-14T22:48:34.466Z,14.60
2018-05-14T22:51:02.248Z,14.60
2018-05-14T22:53:29.854Z,14.70
2018-05-14T22:55:58.206Z,14.60
2018-05-14T22:58:25.766Z,14.50
2018-05-14T23:00:54.105Z,14.50
2018-05-14T23:03:21.666Z,14.50
2018-05-14T23:05:50.458Z,14.50
2018-05-14T23:08:18.180Z,14.60
2018-05-14T23:10:45.949Z,14.60
2018-05-14T23:13:14.017Z,14.50
2018-05-14T23:15:42.646Z,14.50
2018-05-14T23:18:11.298Z,14.50
2018-05-14T23:20:39.714Z,14.50
2018-05-14T23:23:07.277Z,14.50
2018-05-14T23:25:35.213Z,14.40
2018-05-14T23:28:02.805Z,14.40
2018-05-14T23:30:30.386Z,14.40
2018-05-14T23:32:57.954Z,14.40
2018-05-14T23:35:25.536Z,14.30
2018-05-14T23:37:53.117Z,14.40
2018-05-14T23:40:20.752Z,14.40
2018-05-14T23:42:48.389Z,14.30
2018-05-14T23:45:16.294Z,14.30
2018-05-14T23:47:44.083Z,14.20
2018-05-14T23:50:11.830Z,14.30
2018-05-14T23:52:40.182Z,14.30
2018-05-14T23:55:07.741Z,14.20
2018-05-14T23:57:35.321Z,14.30
